Aérodrome :
LOGIN :

S'inscrire | Disclaimer

   EN    FR    IT 

 










Légende :    VFR   VFR Marginal   IFR   IFR Intensif   IFR Très Intensif
Visi : 
Plafond : 
>= 8 km
>= 3000ft
5 à 8 km
1000 à 3000 ft
1500m à 5 km
500 à 1000 ft
800 à 1500m
200 à 500 ft
< 800m
< 200 ft
Symboles :   Orages  Brouillard  Fortes neiges  Fortes précipitations  Vent > 20 kt
SIGMETs :   Divers  Orages  Givrage  Turbulence  Onde Orograph.  Cendres Volcan.







- Altitude de l'aérodrome : 359 ft
- Code IATA : BVA
- Voir les cartes d'approche


LFOB - Beauvais

METARs EXPIRÉS :
  • 241430Z AUTO 25011KT 200V290 CAVOK 26/10 Q1016 NOSIG
  • 241400Z AUTO 23011KT 200V270 CAVOK 26/11 Q1017 NOSIG
  • 241330Z AUTO 22012KT 190V250 CAVOK 25/11 Q1017 BECMG 32010KT
  • 241300Z AUTO 22011KT 180V280 CAVOK 25/11 Q1017 NOSIG
  • 241230Z AUTO 22012KT 190V260 9999 SCT046 SCT052 24/11 Q1017 NOSIG
  • 241200Z AUTO 21011KT 170V260 9999 SCT043 BKN052 24/12 Q1018 NOSIG

Prévision TAF périmée.
ATIS : +33 3 44 11 49 28
Pas de NOTAMs connus pour ce terrain.
1 SIGMET publié pour la FIR Paris (LFFF) :
 
Turbulence forte
LFFF SIGMET 1 VALID 250000/250300 LFPW
LFFF PARIS FIR/UIR SEV TURB FCST WI N5015 E00415 - N4930 E00600 - N4900 E00445 - N4830 E00530 - N4730 E00415 - N4645 E00445 - N4645 E00315 FL300/370 MOV SE 15KT NC=



MET'MAP, la Météo Aéronautique d'un coup d'oeil ! - Copyright ORBIFLY Décembre 2007 - Disclaimer

ORBIFLY MET'MAP TEAM :

Programmation & Développement : Alexandra Zaïnal
Conception & Développement : Baudouin d'Aumeries
Co-Programmation & Développement : Marc-Olivier Méhu
Soutien technique & logistique : Manuel Goepfert

Contact : metmap@orbifly.com




SOURCES & CREDITS :

   NOAA